Terminal Aerodrome Forecast
Issued by NWS

Current Version | Previous Version | Graphics & Text | Print | Product List | Glossary On
Versions: 1 2 3 4 5 6 7 8 9 10 11 12 13 14 15 16 17 18 19 20 21
000
FTUS41 KPBZ 211100
TAFHLG
TAF
KHLG 211120Z 2112/2212 VRB03KT 4SM BR BKN050
      TEMPO 2112/2113 2SM BR SCT010
     FM211400 16005KT P6SM SCT040=

USA.gov is the U.S. government's official web portal to all federal, state and local government web resources and services.